Time;durP1;ratioP1;P1;durP2;ratioP2;P2;SDS_P1;SDS_P2;PMS_P1;PMS_P2;Temp;Humidity;BMP_temperature;BMP_pressure;BME280_temperature;BME280_humidity;BME280_pressure;Samples;Min_cycle;Max_cycle;Signal;HPM_P1;HPM_P2
2023/09/20 00:01:53;;;;;;;8.55;1.50;;;;;;;17.09;82.29;100727.75;4927366;28;20134;-67
2023/09/20 00:04:20;;;;;;;8.13;1.40;;;;;;;17.12;81.95;100724.72;4933129;28;20051;-67
2023/09/20 00:06:46;;;;;;;9.18;1.52;;;;;;;17.07;82.74;100729.75;4933646;29;20111;-67
2023/09/20 00:09:15;;;;;;;5.82;1.65;;;;;;;17.05;82.95;100717.88;4927961;28;20506;-67
2023/09/20 00:11:43;;;;;;;7.78;2.47;;;;;;;17.03;83.64;100725.13;4929321;28;20039;-67
2023/09/20 00:14:08;;;;;;;5.32;1.95;;;;;;;17.07;83.15;100731.56;4942901;28;20156;-67
2023/09/20 00:16:34;;;;;;;4.22;1.40;;;;;;;17.17;83.00;100729.34;4931845;28;20071;-67
2023/09/20 00:18:59;;;;;;;5.15;1.50;;;;;;;17.08;83.32;100725.31;4931187;28;20108;-67
2023/09/20 00:21:25;;;;;;;8.00;1.63;;;;;;;17.05;84.07;100730.97;4930688;28;20043;-67
2023/09/20 00:23:50;;;;;;;6.35;1.77;;;;;;;16.99;84.55;100724.72;4928335;28;20052;-67
2023/09/20 00:26:18;;;;;;;17.75;2.67;;;;;;;17.01;84.51;100721.88;4931579;28;20048;-67
2023/09/20 00:28:49;;;;;;;5.28;1.60;;;;;;;16.99;84.97;100724.72;4945474;28;20067;-67
2023/09/20 00:31:15;;;;;;;4.32;1.40;;;;;;;16.93;85.25;100718.47;4930227;28;20632;-67
2023/09/20 00:33:45;;;;;;;6.25;1.80;;;;;;;17.03;84.43;100714.66;4940507;28;20167;-67
2023/09/20 00:36:19;;;;;;;11.50;1.60;;;;;;;17.03;84.94;100725.94;4945996;28;20044;-67
2023/09/20 00:38:45;;;;;;;7.93;1.60;;;;;;;17.15;85.22;100718.28;4949126;28;20103;-67
2023/09/20 00:41:11;;;;;;;4.10;1.40;;;;;;;16.97;85.17;100720.66;4946343;28;20391;-67
2023/09/20 00:43:37;;;;;;;9.13;1.90;;;;;;;16.92;85.41;100719.47;4935236;28;20062;-67
2023/09/20 00:46:04;;;;;;;6.40;1.55;;;;;;;16.88;86.20;100730.56;4934728;28;20051;-67
2023/09/20 00:48:31;;;;;;;4.00;1.50;;;;;;;16.96;86.15;100724.31;4932321;28;20600;-67
2023/09/20 00:50:57;;;;;;;6.68;1.95;;;;;;;16.95;85.91;100720.88;4934049;28;20040;-67
2023/09/20 00:53:24;;;;;;;6.35;2.25;;;;;;;17.00;85.90;100720.28;4934202;28;20138;-67
2023/09/20 00:55:50;;;;;;;6.07;1.55;;;;;;;16.93;86.23;100713.22;4934157;28;20039;-67
2023/09/20 00:58:18;;;;;;;7.13;1.83;;;;;;;16.96;86.43;100716.47;4930264;28;20562;-67
2023/09/20 01:00:45;;;;;;;7.03;1.50;;;;;;;17.07;85.61;100721.91;4934266;28;20503;-67
2023/09/20 01:03:16;;;;;;;14.20;2.63;;;;;;;16.99;86.27;100722.09;4935519;28;20513;-67
2023/09/20 01:05:42;;;;;;;5.65;1.60;;;;;;;16.99;86.47;100716.88;4945187;28;20086;-67
2023/09/20 01:08:08;;;;;;;8.05;1.70;;;;;;;17.02;86.33;100715.66;4945789;28;20208;-67
2023/09/20 01:10:37;;;;;;;5.32;1.15;;;;;;;17.04;86.57;100706.56;4932986;28;20051;-67
2023/09/20 01:13:11;;;;;;;5.70;1.70;;;;;;;17.04;86.20;100711.81;4934540;28;20042;-67
2023/09/20 01:15:37;;;;;;;7.85;1.98;;;;;;;17.06;86.37;100703.75;4948146;28;20040;-66
2023/09/20 01:18:04;;;;;;;7.10;2.00;;;;;;;17.08;86.07;100704.38;4935008;28;20043;-67
2023/09/20 01:20:33;;;;;;;6.90;1.73;;;;;;;17.17;86.48;100707.59;4932785;28;20680;-67
2023/09/20 01:22:59;;;;;;;4.72;1.38;;;;;;;17.04;86.17;100711.81;4945715;28;20491;-67
2023/09/20 01:25:35;;;;;;;8.77;1.77;;;;;;;17.03;86.85;100709.41;4933916;28;20043;-67
2023/09/20 01:28:03;;;;;;;9.23;2.45;;;;;;;17.00;87.46;100709.81;4949352;28;20495;-67
2023/09/20 01:30:31;;;;;;;4.53;1.60;;;;;;;16.89;87.57;100717.22;4945407;28;20039;-67
2023/09/20 01:32:59;;;;;;;7.38;1.70;;;;;;;16.90;87.76;100716.25;4933160;28;20035;-67
2023/09/20 01:35:29;;;;;;;7.20;1.85;;;;;;;16.88;88.15;100712.22;4931388;28;20058;-67
2023/09/20 01:37:56;;;;;;;8.60;2.10;;;;;;;16.83;88.55;100712.81;4945776;28;20446;-67
2023/09/20 01:40:26;;;;;;;5.75;1.50;;;;;;;16.89;87.81;100713.81;4936752;28;20040;-67
2023/09/20 01:42:58;;;;;;;8.20;1.67;;;;;;;16.83;88.16;100702.34;4945539;28;20063;-67
2023/09/20 01:45:24;;;;;;;7.30;2.63;;;;;;;17.03;87.76;100699.75;4934988;28;20644;-67
2023/09/20 01:47:52;;;;;;;4.47;1.75;;;;;;;16.87;88.21;100702.75;4945501;28;20043;-67
2023/09/20 01:50:22;;;;;;;6.25;1.48;;;;;;;16.86;88.25;100696.69;4950231;28;20462;-67
2023/09/20 01:52:52;;;;;;;5.97;1.58;;;;;;;16.80;88.96;100694.84;4944968;28;20059;-66
2023/09/20 01:55:22;;;;;;;4.82;1.38;;;;;;;16.80;89.26;100692.25;4947890;28;20051;-67
2023/09/20 01:57:50;;;;;;;8.55;1.73;;;;;;;16.92;88.68;100687.25;4929486;28;20128;-67
2023/09/20 02:00:23;;;;;;;8.02;1.88;;;;;;;16.91;88.67;100683.81;4941883;28;20499;-68
2023/09/20 02:02:54;;;;;;;7.03;1.55;;;;;;;16.97;88.48;100686.63;4930627;28;20031;-67
2023/09/20 02:05:21;;;;;;;4.32;1.55;;;;;;;16.82;89.28;100682.41;4931429;28;20095;-67
2023/09/20 02:07:48;;;;;;;7.18;1.77;;;;;;;16.85;89.30;100684.59;4935694;28;20405;-67
2023/09/20 02:10:16;;;;;;;6.63;2.03;;;;;;;16.91;89.06;100683.81;4947468;28;20040;-67
2023/09/20 02:13:00;;;;;;;7.72;2.53;;;;;;;16.74;89.79;100680.75;4930292;28;20039;-67
2023/09/20 02:15:28;;;;;;;5.85;1.55;;;;;;;16.67;90.19;100679.94;4946629;28;20035;-67
2023/09/20 02:17:54;;;;;;;4.70;1.75;;;;;;;16.72;90.40;100676.72;4929991;28;20079;-67
2023/09/20 02:20:23;;;;;;;4.70;1.65;;;;;;;16.67;90.88;100682.56;4932520;28;20040;-67
2023/09/20 02:22:54;;;;;;;7.22;1.58;;;;;;;16.67;90.45;100677.31;4931309;28;20035;-67
2023/09/20 02:25:20;;;;;;;8.55;2.13;;;;;;;16.62;90.66;100677.09;4945316;28;20047;-67
2023/09/20 02:27:51;;;;;;;9.30;1.88;;;;;;;16.73;90.08;100678.34;4948659;28;20055;-67
2023/09/20 02:30:24;;;;;;;5.75;1.77;;;;;;;16.69;89.99;100677.91;4950419;28;20097;-67
2023/09/20 02:32:51;;;;;;;;;;;;;;;16.78;89.73;100682.94;4948975;28;20027;-67
2023/09/20 02:35:17;;;;;;;3.85;1.42;;;;;;;16.86;89.54;100674.97;4947765;28;19918;-67
2023/09/20 02:37:43;;;;;;;6.70;1.90;;;;;;;16.77;89.45;100673.50;4934178;28;20653;-67
2023/09/20 02:40:19;;;;;;;8.65;2.53;;;;;;;16.70;89.84;100674.28;4938989;28;20043;-67
2023/09/20 02:42:53;;;;;;;3.53;1.50;;;;;;;16.60;90.79;100684.34;4933689;28;20049;-67
2023/09/20 02:45:23;;;;;;;6.18;2.13;;;;;;;16.55;91.62;100671.84;4952515;28;20086;-67
2023/09/20 02:47:49;;;;;;;8.10;1.85;;;;;;;16.62;91.07;100673.69;4947705;28;20036;-67
2023/09/20 02:50:18;;;;;;;6.18;1.65;;;;;;;16.54;91.51;100674.69;4958707;28;20051;-67
2023/09/20 02:52:47;;;;;;;7.38;1.60;;;;;;;16.49;91.69;100675.25;4952000;28;20210;-67
2023/09/20 02:55:13;;;;;;;5.38;1.60;;;;;;;16.54;91.77;100672.84;4939304;28;20058;-67
2023/09/20 02:57:47;;;;;;;5.78;1.90;;;;;;;16.52;91.66;100668.84;4939924;28;20507;-67
2023/09/20 03:00:16;;;;;;;6.47;1.55;;;;;;;16.46;92.17;100667.81;4935431;28;20051;-67
2023/09/20 03:02:49;;;;;;;4.32;1.70;;;;;;;16.44;92.02;100669.78;4952637;28;20054;-67
2023/09/20 03:05:16;;;;;;;5.70;1.70;;;;;;;16.43;92.56;100664.78;4955788;28;20054;-67
2023/09/20 03:07:46;;;;;;;9.43;1.70;;;;;;;16.43;92.55;100664.78;4950257;28;20039;-67
2023/09/20 03:10:13;;;;;;;6.28;1.83;;;;;;;16.46;92.29;100659.13;4948634;28;20054;-67
2023/09/20 03:12:41;;;;;;;6.78;1.92;;;;;;;16.55;91.65;100648.28;4934640;28;20031;-67
2023/09/20 03:15:10;;;;;;;6.47;2.00;;;;;;;16.59;91.12;100640.84;4931328;28;20056;-67
2023/09/20 03:17:37;;;;;;;6.88;1.70;;;;;;;16.47;91.74;100638.00;4952293;28;20040;-67
2023/09/20 03:20:10;;;;;;;8.18;1.98;;;;;;;16.41;92.60;100638.81;4936244;28;20147;-67
2023/09/20 03:22:38;;;;;;;7.82;1.80;;;;;;;16.43;92.70;100638.63;4954388;28;20758;-67
2023/09/20 03:25:04;;;;;;;6.60;1.55;;;;;;;16.41;92.81;100635.41;4939536;28;20115;-67
2023/09/20 03:27:31;;;;;;;7.35;1.60;;;;;;;16.40;92.94;100631.94;4947671;28;20111;-67
2023/09/20 03:29:57;;;;;;;3.05;1.55;;;;;;;16.47;93.29;100635.38;4934546;28;20039;-67
2023/09/20 03:32:23;;;;;;;7.00;1.50;;;;;;;16.40;93.30;100631.94;4939133;28;20035;-67
2023/09/20 03:34:49;;;;;;;7.55;1.85;;;;;;;16.39;93.29;100632.13;4933425;28;20039;-67
2023/09/20 03:37:18;;;;;;;6.05;1.65;;;;;;;16.36;93.52;100630.75;4935499;28;20403;-65
2023/09/20 03:39:45;;;;;;;6.82;1.88;;;;;;;16.29;94.07;100627.28;4936188;28;20062;-65
2023/09/20 03:42:11;;;;;;;3.95;1.80;;;;;;;16.18;95.08;100626.09;4948606;28;20181;-66
2023/09/20 03:44:39;;;;;;;6.00;1.92;;;;;;;16.20;94.62;100625.84;4936506;28;20039;-66
2023/09/20 03:47:05;;;;;;;5.88;1.70;;;;;;;16.11;95.20;100620.81;4949244;28;20987;-65
2023/09/20 03:49:32;;;;;;;7.30;1.70;;;;;;;16.07;95.97;100626.66;4951086;28;20406;-65
2023/09/20 03:52:00;;;;;;;9.73;1.80;;;;;;;16.09;95.54;100622.81;4945416;28;20035;-66
2023/09/20 03:54:28;;;;;;;5.72;1.55;;;;;;;16.20;95.57;100613.59;4950673;28;20034;-65
2023/09/20 03:56:55;;;;;;;8.75;1.90;;;;;;;16.06;96.28;100619.78;4936601;28;20035;-65
2023/09/20 03:59:21;;;;;;;8.40;2.25;;;;;;;16.07;96.27;100609.13;4937068;28;20062;-65
2023/09/20 04:01:46;;;;;;;6.95;2.00;;;;;;;16.04;96.61;100612.13;4938477;28;20127;-66
2023/09/20 04:04:16;;;;;;;4.90;1.90;;;;;;;15.97;96.95;100608.69;4932867;28;20502;-66
2023/09/20 04:06:43;;;;;;;5.22;1.83;;;;;;;15.95;97.22;100605.47;4934872;28;20138;-65
2023/09/20 04:09:11;;;;;;;4.22;1.92;;;;;;;15.89;97.90;100611.50;4949130;28;20047;-66
2023/09/20 04:11:38;;;;;;;10.85;2.05;;;;;;;15.85;98.17;100608.44;4950213;28;20035;-65
2023/09/20 04:14:05;;;;;;;4.85;1.80;;;;;;;15.80;98.58;100604.81;4933543;28;20088;-65
2023/09/20 04:16:31;;;;;;;6.95;1.85;;;;;;;15.83;98.43;100601.81;4933777;28;20114;-66
2023/09/20 04:18:57;;;;;;;5.95;2.22;;;;;;;15.78;98.81;100594.53;4938728;28;20134;-66
2023/09/20 04:21:24;;;;;;;6.43;2.00;;;;;;;15.69;99.56;100591.28;4938047;28;20043;-65
2023/09/20 04:23:49;;;;;;;6.05;2.55;;;;;;;15.68;99.69;100589.66;4950797;28;20044;-66
2023/09/20 04:26:15;;;;;;;5.63;2.05;;;;;;;15.62;100.00;100587.81;4936677;28;20032;-65
2023/09/20 04:28:41;;;;;;;4.40;2.17;;;;;;;15.58;100.00;100595.25;4950934;28;20094;-66
2023/09/20 04:31:08;;;;;;;7.50;2.20;;;;;;;15.54;100.00;100585.38;4937748;28;20032;-65
2023/09/20 04:33:35;;;;;;;11.73;2.90;;;;;;;15.54;100.00;100585.38;4934299;28;20443;-66
2023/09/20 04:36:04;;;;;;;6.57;1.73;;;;;;;15.53;100.00;100584.56;4934816;28;20062;-65
2023/09/20 04:38:30;;;;;;;5.80;1.95;;;;;;;15.50;100.00;100584.97;4945548;28;20049;-66
2023/09/20 04:40:56;;;;;;;8.48;2.10;;;;;;;15.47;100.00;100585.34;4949752;28;20047;-65
2023/09/20 04:43:22;;;;;;;6.65;1.80;;;;;;;15.50;100.00;100584.97;4934004;28;20043;-65
2023/09/20 04:45:48;;;;;;;3.95;1.70;;;;;;;15.50;100.00;100574.50;4934999;28;20573;-66
2023/09/20 04:48:14;;;;;;;6.03;1.90;;;;;;;15.48;100.00;100580.91;4935701;28;20138;-66
2023/09/20 04:50:39;;;;;;;10.00;2.17;;;;;;;15.50;100.00;100582.34;4936808;28;20089;-66
2023/09/20 04:53:05;;;;;;;4.28;1.65;;;;;;;15.45;100.00;100589.16;4948440;28;20746;-66
2023/09/20 04:55:34;;;;;;;7.15;2.05;;;;;;;15.46;100.00;100583.72;4947929;28;20079;-66
2023/09/20 04:58:00;;;;;;;7.53;2.03;;;;;;;15.46;100.00;100586.31;4937901;28;20058;-66
2023/09/20 05:00:33;;;;;;;9.73;2.03;;;;;;;15.49;100.00;100587.75;4941211;28;20115;-66
2023/09/20 05:03:00;;;;;;;5.53;2.00;;;;;;;15.56;100.00;100581.56;4931278;29;20071;-65
2023/09/20 05:05:26;;;;;;;8.18;2.20;;;;;;;15.53;100.00;100583.75;4932746;28;20566;-66
2023/09/20 05:07:52;;;;;;;7.05;2.40;;;;;;;15.50;100.00;100589.34;4932571;28;20037;-66
2023/09/20 05:10:18;;;;;;;6.28;2.10;;;;;;;15.47;100.00;100587.94;4934387;28;20036;-66
2023/09/20 05:12:44;;;;;;;7.82;2.50;;;;;;;15.47;100.00;100582.72;4943635;28;20086;-66
2023/09/20 05:15:13;;;;;;;6.90;1.85;;;;;;;15.47;100.00;100585.34;4945380;28;20035;-66
2023/09/20 05:17:45;;;;;;;7.68;2.22;;;;;;;15.53;100.00;100586.38;4946896;28;20130;-66
2023/09/20 05:20:14;;;;;;;4.78;2.17;;;;;;;15.47;100.00;100580.09;4943178;28;20467;-65
2023/09/20 05:22:41;;;;;;;5.15;2.30;;;;;;;15.46;100.00;100585.53;4949440;28;20050;-66
2023/09/20 05:25:08;;;;;;;5.75;1.90;;;;;;;15.46;100.00;100567.22;4948274;28;20134;-66
2023/09/20 05:27:34;;;;;;;8.30;2.25;;;;;;;15.47;100.00;100568.88;4929768;29;20094;-66
2023/09/20 05:30:00;;;;;;;9.90;1.98;;;;;;;15.58;100.00;100568.31;4928770;28;20439;-66
2023/09/20 05:32:26;;;;;;;8.55;2.70;;;;;;;15.53;100.00;100571.50;4944941;28;20036;-66
2023/09/20 05:34:52;;;;;;;8.00;2.20;;;;;;;15.49;100.00;100567.66;4935760;28;20054;-66
2023/09/20 05:37:17;;;;;;;11.20;2.08;;;;;;;15.46;100.00;100581.09;4945554;28;20050;-65
2023/09/20 05:39:48;;;;;;;5.15;1.92;;;;;;;15.47;100.00;100574.09;4951100;28;20113;-65
2023/09/20 05:42:17;;;;;;;8.73;2.10;;;;;;;15.53;100.00;100557.63;4931084;28;20074;-66
2023/09/20 05:44:43;;;;;;;13.73;3.03;;;;;;;15.57;100.00;100562.25;4929014;28;20046;-65
2023/09/20 05:47:08;;;;;;;10.18;1.92;;;;;;;15.61;100.00;100557.44;4945922;28;20043;-66
2023/09/20 05:49:35;;;;;;;6.20;2.00;;;;;;;15.49;100.00;100545.97;4927660;28;20398;-66
2023/09/20 05:52:02;;;;;;;5.72;2.08;;;;;;;15.51;100.00;100546.56;4943146;28;20039;-66
2023/09/20 05:54:28;;;;;;;10.95;2.83;;;;;;;15.52;100.00;100561.22;4933347;28;20043;-66
2023/09/20 05:56:54;;;;;;;8.30;2.58;;;;;;;15.54;100.00;100552.22;4932310;28;20027;-66
2023/09/20 05:59:20;;;;;;;6.75;1.90;;;;;;;15.47;100.00;100558.41;4929450;28;20426;-66
2023/09/20 06:01:45;;;;;;;5.38;1.90;;;;;;;15.43;100.00;100555.38;4948371;28;20028;-65
2023/09/20 06:04:10;;;;;;;9.23;2.60;;;;;;;15.54;100.00;100551.41;4930365;28;20518;-66
2023/09/20 06:06:39;;;;;;;6.68;2.30;;;;;;;15.57;100.00;100556.22;4930174;28;21090;-66
2023/09/20 06:09:05;;;;;;;5.47;2.20;;;;;;;15.57;100.00;100553.63;4928722;28;20455;-66
2023/09/20 06:11:31;;;;;;;6.20;2.30;;;;;;;15.55;100.00;100555.63;4934539;28;20081;-66
2023/09/20 06:13:57;;;;;;;7.78;2.10;;;;;;;15.58;100.00;100556.03;4928864;28;20032;-66
2023/09/20 06:16:22;;;;;;;13.63;3.35;;;;;;;15.74;100.00;100556.72;4928574;29;20043;-65
2023/09/20 06:18:49;;;;;;;9.60;2.92;;;;;;;15.72;100.00;100559.50;4929545;28;20414;-66
2023/09/20 06:21:17;;;;;;;14.48;2.05;;;;;;;15.66;100.00;100557.69;4932799;28;20048;-66
2023/09/20 06:23:43;;;;;;;4.45;1.92;;;;;;;15.67;100.00;100561.91;4945170;28;20050;-66
2023/09/20 06:26:15;;;;;;;6.95;2.17;;;;;;;15.80;100.00;100560.38;4945370;28;20936;-66
2023/09/20 06:28:42;;;;;;;7.07;2.30;;;;;;;15.76;100.00;100558.16;4930477;28;20082;-66
2023/09/20 06:31:16;;;;;;;5.63;2.15;;;;;;;15.95;100.00;100561.00;4931879;28;20771;-65
2023/09/20 06:33:46;;;;;;;5.57;2.10;;;;;;;16.23;100.00;100563.50;4940426;28;20075;-66
2023/09/20 06:36:22;;;;;;;7.57;2.00;;;;;;;16.47;99.30;100564.72;4946209;28;20062;-66
2023/09/20 06:38:48;;;;;;;9.75;3.22;;;;;;;16.91;97.16;100568.59;4926217;28;20090;-65
2023/09/20 06:41:14;;;;;;;7.00;2.95;;;;;;;17.15;95.70;100557.69;4925041;28;20047;-66
2023/09/20 06:43:40;;;;;;;7.80;2.20;;;;;;;17.12;93.68;100558.88;4926985;28;20055;-66
2023/09/20 06:46:09;;;;;;;6.72;2.25;;;;;;;17.05;94.18;100556.28;4930721;28;20043;-66
2023/09/20 06:48:37;;;;;;;4.35;1.50;;;;;;;17.15;94.38;100558.47;4946803;28;20058;-66
2023/09/20 06:51:03;;;;;;;6.00;2.53;;;;;;;17.23;92.92;100560.06;4930663;28;20100;-66
2023/09/20 06:53:30;;;;;;;8.02;1.92;;;;;;;17.22;92.27;100561.09;4925709;28;20036;-66
2023/09/20 06:55:56;;;;;;;9.75;2.45;;;;;;;17.11;93.18;100567.75;4931202;28;20044;-66
2023/09/20 06:58:22;;;;;;;7.05;1.75;;;;;;;17.22;92.93;100561.88;4933411;28;20055;-66
2023/09/20 07:00:50;;;;;;;10.40;2.28;;;;;;;17.26;93.42;100557.03;4929094;28;20130;-66
2023/09/20 07:03:15;;;;;;;8.32;3.20;;;;;;;17.50;91.72;100558.19;4929514;28;20039;-66
2023/09/20 07:05:41;;;;;;;6.93;2.03;;;;;;;17.23;92.22;100562.69;4934828;28;20405;-66
2023/09/20 07:08:08;;;;;;;7.35;2.15;;;;;;;17.10;92.60;100564.34;4943692;28;20036;-66
2023/09/20 07:10:33;;;;;;;8.13;2.15;;;;;;;17.01;93.51;100572.59;4928335;28;20067;-66
2023/09/20 07:13:00;;;;;;;9.18;2.22;;;;;;;17.21;93.28;100567.31;4930623;28;20051;-66
2023/09/20 07:15:27;;;;;;;5.43;2.05;;;;;;;17.43;90.91;100573.91;4926324;28;20134;-66
2023/09/20 07:17:58;;;;;;;6.80;1.95;;;;;;;17.49;90.60;100565.22;4929434;28;20040;-66
2023/09/20 07:20:25;;;;;;;8.68;2.22;;;;;;;17.57;89.84;100569.44;4935898;28;20043;-65
2023/09/20 07:22:53;;;;;;;6.10;2.22;;;;;;;17.86;88.54;100569.97;4930336;28;20048;-66
2023/09/20 07:25:20;;;;;;;6.20;1.98;;;;;;;18.43;86.57;100562.94;4934379;28;20072;-66
2023/09/20 07:27:47;;;;;;;6.65;1.90;;;;;;;18.74;83.58;100563.91;4934267;28;21950;-66
2023/09/20 07:30:17;;;;;;;6.13;2.13;;;;;;;19.16;80.99;100561.50;4947765;28;20114;-66
2023/09/20 07:32:44;;;;;;;6.97;2.17;;;;;;;19.43;79.01;100561.22;4949745;28;20042;-66
2023/09/20 07:35:36;;;;;;;10.98;2.95;;;;;;;20.16;75.77;100564.75;4931370;28;20111;-66
2023/09/20 07:38:04;;;;;;;17.48;2.92;;;;;;;20.86;72.75;100550.06;4949704;28;20475;-66
2023/09/20 07:40:30;;;;;;;8.35;1.63;;;;;;;21.06;71.68;100552.34;4949148;28;20067;-66
2023/09/20 07:42:59;;;;;;;8.27;2.03;;;;;;;20.98;70.47;100553.50;4936570;28;20086;-67
2023/09/20 07:45:27;;;;;;;7.30;1.70;;;;;;;20.95;70.72;100554.75;4948987;28;20044;-66
2023/09/20 07:47:52;;;;;;;8.82;1.80;;;;;;;21.63;69.03;100543.75;4932043;28;20422;-66
2023/09/20 07:50:19;;;;;;;8.30;1.73;;;;;;;21.68;67.56;100549.09;4931782;28;20040;-66
2023/09/20 07:52:45;;;;;;;3.92;1.50;;;;;;;21.46;68.60;100552.41;4946101;28;20046;-66
2023/09/20 07:55:11;;;;;;;5.65;1.40;;;;;;;21.71;66.29;100559.19;4933085;28;20039;-66
2023/09/20 07:57:38;;;;;;;2.05;1.27;;;;;;;21.86;66.89;100561.31;4933634;28;20044;-66
2023/09/20 08:00:08;;;;;;;4.18;1.45;;;;;;;21.36;67.34;100557.44;4934851;28;20046;-66
2023/09/20 08:02:38;;;;;;;4.07;1.60;;;;;;;20.72;71.33;100560.03;4936553;28;20091;-66
2023/09/20 08:05:05;;;;;;;5.85;1.40;;;;;;;20.45;72.91;100560.44;4930264;28;20055;-66
2023/09/20 08:07:31;;;;;;;7.45;1.52;;;;;;;20.10;75.29;100563.81;4931661;28;20541;-66
2023/09/20 08:09:56;;;;;;;6.63;1.50;;;;;;;20.33;74.17;100559.63;4935939;28;20039;-65
2023/09/20 08:12:22;;;;;;;6.38;1.75;;;;;;;20.26;73.62;100557.09;4934531;28;20067;-66
2023/09/20 08:14:48;;;;;;;4.63;1.48;;;;;;;20.34;73.70;100559.41;4933029;28;20036;-66
2023/09/20 08:19:58;;;;;;;5.88;1.65;;;;;;;20.61;71.23;100554.53;4943437;28;20039;-66
2023/09/20 08:22:23;;;;;;;6.30;1.60;;;;;;;20.07;73.99;100561.63;4929329;28;20052;-65
2023/09/20 09:00:34;;;;;;;3.65;1.38;;;;;;;22.68;66.02;100563.47;4914359;29;20050;-65
2023/09/20 09:03:04;;;;;;;4.10;1.67;;;;;;;23.09;64.25;100563.25;4909005;28;20149;-66
2023/09/20 09:05:31;;;;;;;7.88;1.60;;;;;;;23.34;65.07;100562.78;4929084;28;20043;-66
2023/09/20 09:07:58;;;;;;;3.33;1.63;;;;;;;23.26;61.99;100563.22;4930228;28;20035;-66
2023/09/20 09:10:24;;;;;;;4.07;1.30;;;;;;;23.04;63.70;100563.22;4936457;28;20035;-67
2023/09/20 09:12:49;;;;;;;6.47;1.52;;;;;;;22.60;65.80;100561.22;4933030;28;20054;-66
2023/09/20 09:15:18;;;;;;;7.15;2.00;;;;;;;22.54;66.40;100556.91;4934079;28;20032;-66
2023/09/20 09:17:46;;;;;;;2.67;1.10;;;;;;;22.36;66.12;100560.63;4933692;28;20042;-66
2023/09/20 09:20:13;;;;;;;3.83;1.20;;;;;;;22.04;68.27;100557.66;4929649;28;20511;-65
2023/09/20 09:22:40;;;;;;;3.47;1.15;;;;;;;21.78;68.20;100565.13;4914526;28;20040;-66
2023/09/20 09:25:13;;;;;;;3.45;1.10;;;;;;;21.57;70.02;100556.84;4934428;28;20094;-66
2023/09/20 09:27:39;;;;;;;3.33;1.05;;;;;;;21.41;68.51;100560.19;4917259;28;20503;-66
2023/09/20 09:30:16;;;;;;;5.80;1.25;;;;;;;21.24;70.03;100564.59;4915537;28;20134;-67
2023/09/20 09:32:45;;;;;;;4.07;0.98;;;;;;;21.39;69.04;100570.16;4914530;28;20047;-66
2023/09/20 09:35:12;;;;;;;4.22;1.02;;;;;;;21.52;68.48;100572.56;4913930;29;20499;-66
2023/09/20 09:37:39;;;;;;;9.30;1.40;;;;;;;21.27;68.19;100566.75;4919143;28;20050;-66
2023/09/20 09:40:06;;;;;;;4.72;1.17;;;;;;;21.29;70.39;100581.31;4916068;28;20584;-66
2023/09/20 09:42:32;;;;;;;1.52;0.90;;;;;;;21.31;69.50;100576.59;4913144;29;20048;-66
2023/09/20 09:44:58;;;;;;;2.75;0.90;;;;;;;21.58;68.89;100570.81;4921199;28;20048;-65
2023/09/20 09:47:25;;;;;;;2.38;1.45;;;;;;;21.58;67.49;100565.53;4914660;28;20069;-66
2023/09/20 09:49:54;;;;;;;6.28;1.10;;;;;;;21.56;68.58;100563.13;4911425;28;20510;-66
2023/09/20 09:52:24;;;;;;;2.47;0.77;;;;;;;21.50;70.20;100564.09;4928217;28;20047;-66
2023/09/20 09:54:54;;;;;;;2.35;0.90;;;;;;;21.59;70.67;100561.88;4930260;28;20036;-66
2023/09/20 09:57:20;;;;;;;2.97;1.20;;;;;;;21.68;68.45;100557.03;4913440;28;20118;-65
2023/09/20 09:59:47;;;;;;;5.05;1.05;;;;;;;22.00;69.92;100551.25;4914446;28;20043;-65
2023/09/20 10:02:17;;;;;;;2.38;0.88;;;;;;;22.01;67.92;100547.59;4914355;28;20078;-65
2023/09/20 10:04:59;;;;;;;5.38;1.08;;;;;;;21.90;69.34;100547.41;4914050;28;20071;-65
2023/09/20 10:07:30;;;;;;;5.85;1.30;;;;;;;22.06;68.45;100553.75;4924448;28;20176;-65
2023/09/20 10:10:12;;;;;;;4.03;0.90;;;;;;;22.06;69.29;100545.84;4931173;28;20048;-66
2023/09/20 10:12:39;;;;;;;3.50;1.13;;;;;;;21.81;68.80;100553.31;4942509;28;20044;-65
2023/09/20 10:15:08;;;;;;;5.43;0.90;;;;;;;21.74;69.10;100550.81;4930601;28;20528;-66
2023/09/20 10:17:52;;;;;;;4.57;1.27;;;;;;;21.74;67.48;100548.97;4927803;28;20065;-66
2023/09/20 10:20:18;;;;;;;5.88;1.27;;;;;;;21.53;66.73;100549.63;4928827;28;20043;-66
2023/09/20 10:22:47;;;;;;;1.75;0.90;;;;;;;21.54;67.28;100536.19;4925350;28;20075;-66
2023/09/20 10:25:34;;;;;;;6.00;1.67;;;;;;;21.49;68.51;100535.31;4915854;28;20040;-66
2023/09/20 10:28:09;;;;;;;1.63;0.95;;;;;;;21.63;67.21;100533.22;4914186;28;20051;-65
2023/09/20 10:31:03;;;;;;;3.65;0.75;;;;;;;21.63;67.07;100535.84;4916386;28;20707;-66
2023/09/20 10:33:48;;;;;;;5.43;1.10;;;;;;;21.56;68.08;100528.06;4924863;28;20040;-66
2023/09/20 10:36:24;;;;;;;2.30;1.30;;;;;;;21.65;68.86;100520.56;4914049;28;20067;-65
2023/09/20 10:39:18;;;;;;;2.45;0.95;;;;;;;21.55;67.51;100540.44;4913658;28;20048;-66
2023/09/20 10:41:45;;;;;;;3.95;1.30;;;;;;;21.44;65.84;100522.00;4914995;29;20043;-66
2023/09/20 10:44:29;;;;;;;3.95;1.10;;;;;;;21.55;68.36;100529.09;4917939;28;20100;-66
2023/09/20 10:47:00;;;;;;;2.60;0.98;;;;;;;21.85;65.79;100520.13;4911232;28;20051;-66
2023/09/20 10:49:41;;;;;;;3.25;1.20;;;;;;;21.92;66.34;100518.94;4930448;28;20046;-65
2023/09/20 10:52:08;;;;;;;4.13;1.25;;;;;;;22.03;65.51;100508.56;4926346;28;20036;-66
2023/09/20 10:54:36;;;;;;;2.08;1.30;;;;;;;21.83;64.85;100517.75;4917560;28;20070;-66
2023/09/20 10:57:09;;;;;;;2.90;0.90;;;;;;;21.90;65.62;100507.81;4928479;28;20042;-66
2023/09/20 10:59:37;;;;;;;4.65;1.08;;;;;;;21.91;65.83;100514.72;4916607;28;20921;-65
2023/09/20 11:02:12;;;;;;;4.07;1.00;;;;;;;21.90;65.78;100504.38;4917350;28;20067;-65
2023/09/20 11:04:38;;;;;;;2.30;1.00;;;;;;;21.94;65.36;100521.34;4915232;28;20503;-66
2023/09/20 11:07:05;;;;;;;2.65;0.95;;;;;;;21.88;64.55;100515.16;4937751;28;20517;-66
2023/09/20 11:09:31;;;;;;;2.63;0.95;;;;;;;21.76;63.88;100495.97;4932673;28;20031;-66
2023/09/20 11:12:06;;;;;;;2.45;1.23;;;;;;;21.71;62.68;100515.13;4934832;28;20023;-66
2023/09/20 11:14:40;;;;;;;3.17;0.80;;;;;;;21.63;63.28;100499.72;4949012;28;20274;-66
2023/09/20 11:17:06;;;;;;;1.45;0.90;;;;;;;21.68;64.63;100502.44;4934426;28;20352;-66
2023/09/20 11:19:32;;;;;;;2.75;0.85;;;;;;;21.60;65.27;100497.53;4950256;28;20031;-66
2023/09/20 11:21:58;;;;;;;3.20;1.05;;;;;;;21.58;65.27;100491.69;4947104;28;20035;-66
2023/09/20 11:24:27;;;;;;;2.72;0.93;;;;;;;21.71;65.84;100496.66;4946705;28;22282;-67
2023/09/20 11:26:57;;;;;;;5.75;1.10;;;;;;;21.68;64.37;100498.97;4932234;28;20114;-66
2023/09/20 11:29:24;;;;;;;4.18;1.08;;;;;;;21.87;64.08;100486.38;4933693;28;20043;-66
2023/09/20 11:31:54;;;;;;;5.30;1.20;;;;;;;21.97;61.88;100479.44;4933378;28;20034;-66
2023/09/20 11:34:20;;;;;;;4.65;1.20;;;;;;;21.97;61.27;100476.78;4931670;28;20057;-66
2023/09/20 11:36:47;;;;;;;5.35;0.90;;;;;;;22.13;62.66;100474.38;4932273;29;20032;-66
2023/09/20 11:39:17;;;;;;;3.25;0.85;;;;;;;22.41;61.91;100476.16;4937514;28;20070;-66
2023/09/20 11:41:45;;;;;;;5.80;2.13;;;;;;;22.50;60.95;100468.63;4932744;29;20122;-66
2023/09/20 11:44:11;;;;;;;5.82;1.10;;;;;;;22.45;59.74;100463.28;4930126;28;20134;-67
2023/09/20 11:46:37;;;;;;;4.10;1.00;;;;;;;22.49;60.49;100459.91;4944308;28;20031;-66
2023/09/20 11:49:04;;;;;;;2.10;0.98;;;;;;;22.35;59.87;100464.72;4933845;28;20043;-66
2023/09/20 11:51:31;;;;;;;4.22;0.90;;;;;;;22.24;60.15;100464.78;4930363;28;20487;-66
2023/09/20 11:53:58;;;;;;;2.95;1.02;;;;;;;22.30;59.07;100459.38;4945332;28;20690;-66
2023/09/20 11:56:31;;;;;;;2.45;0.82;;;;;;;22.30;60.62;100450.66;4927110;28;20534;-66
2023/09/20 11:59:09;;;;;;;3.40;0.93;;;;;;;22.17;61.77;100452.56;4927726;28;20045;-66
2023/09/20 12:01:40;;;;;;;3.95;0.85;;;;;;;22.19;60.23;100447.06;4929875;28;20406;-66
2023/09/20 12:04:07;;;;;;;5.97;0.90;;;;;;;22.19;61.47;100439.13;4929473;28;20410;-66
2023/09/20 12:06:32;;;;;;;5.32;1.10;;;;;;;22.38;61.56;100455.53;4931721;28;20562;-67
2023/09/20 12:09:01;;;;;;;3.28;1.20;;;;;;;22.31;59.97;100445.13;4930604;28;20048;-66